createdAt,value
2019-05-15T00:00:51.523Z,54.70
2019-05-15T00:03:30.445Z,55.70
2019-05-15T00:06:03.956Z,56.30
2019-05-15T00:09:19.330Z,55.90
2019-05-15T00:11:54.647Z,56.40
2019-05-15T00:21:20.591Z,56.00
2019-05-15T00:23:55.507Z,55.10
2019-05-15T00:26:58.696Z,55.90
2019-05-15T00:29:30.605Z,55.60
2019-05-15T00:32:09.038Z,55.00
2019-05-15T00:34:38.258Z,55.30
2019-05-15T00:37:09.997Z,55.10
2019-05-15T00:39:40.669Z,53.90
2019-05-15T00:42:28.464Z,53.10
2019-05-15T00:45:05.635Z,54.60
2019-05-15T00:48:19.270Z,56.20
2019-05-15T00:50:58.981Z,56.10
2019-05-15T00:53:30.516Z,56.50
2019-05-15T00:56:57.953Z,56.80
2019-05-15T00:59:30.488Z,56.20
2019-05-15T01:04:58.507Z,55.10
2019-05-15T01:07:30.830Z,56.20
2019-05-15T01:10:15.480Z,56.30
2019-05-15T01:12:51.104Z,56.30
2019-05-15T01:15:23.432Z,56.60
2019-05-15T01:18:25.328Z,56.40
2019-05-15T01:20:58.691Z,56.60
2019-05-15T01:23:34.120Z,55.70
2019-05-15T01:26:05.494Z,55.80
2019-05-15T01:28:38.175Z,56.90
2019-05-15T01:31:09.726Z,56.10
2019-05-15T01:33:40.369Z,56.20
2019-05-15T01:36:11.800Z,55.80
2019-05-15T01:38:43.008Z,55.40
2019-05-15T01:41:18.727Z,55.60
2019-05-15T01:43:49.060Z,55.20
2019-05-15T01:46:20.625Z,55.40
2019-05-15T01:48:58.403Z,55.70
2019-05-15T01:51:33.248Z,56.70
2019-05-15T01:54:08.931Z,56.90
2019-05-15T01:56:38.758Z,56.70
2019-05-15T01:59:24.474Z,57.00
2019-05-15T02:01:59.075Z,57.00
2019-05-15T02:04:31.229Z,56.40
2019-05-15T02:07:02.585Z,56.80
2019-05-15T02:09:35.814Z,57.10
2019-05-15T02:12:08.687Z,56.90
2019-05-15T02:14:40.254Z,57.00
2019-05-15T02:17:11.723Z,56.70
2019-05-15T02:19:45.500Z,56.40
2019-05-15T02:22:19.483Z,57.10
2019-05-15T02:24:51.874Z,57.00
2019-05-15T02:27:29.639Z,57.20
2019-05-15T02:30:22.714Z,57.10
2019-05-15T02:32:42.609Z,57.00
2019-05-15T02:35:15.191Z,57.00
2019-05-15T02:37:48.740Z,56.80
2019-05-15T02:40:19.392Z,56.90
2019-05-15T02:42:51.861Z,56.50
2019-05-15T02:45:29.851Z,56.80
2019-05-15T02:48:08.880Z,56.70
2019-05-15T02:50:40.338Z,56.80
2019-05-15T02:53:15.411Z,56.80
2019-05-15T02:55:44.763Z,57.50
2019-05-15T02:58:21.191Z,56.00
2019-05-15T03:00:54.047Z,57.00
2019-05-15T03:03:23.443Z,56.80
2019-05-15T03:05:54.445Z,56.60
2019-05-15T03:08:23.267Z,56.40
2019-05-15T03:10:55.108Z,56.50
2019-05-15T03:13:25.759Z,56.70
2019-05-15T03:15:55.354Z,56.30
2019-05-15T03:18:24.963Z,56.20
2019-05-15T03:21:00.006Z,56.00
2019-05-15T03:23:34.447Z,56.20
2019-05-15T03:26:08.643Z,56.20
2019-05-15T03:28:39.490Z,56.20
2019-05-15T03:31:41.741Z,57.10
2019-05-15T03:33:54.156Z,56.00
2019-05-15T03:36:24.488Z,57.10
2019-05-15T03:39:00.984Z,57.10
2019-05-15T03:41:31.788Z,57.10
2019-05-15T03:44:09.427Z,57.30
2019-05-15T03:46:40.877Z,57.50
2019-05-15T03:49:13.570Z,57.30
2019-05-15T03:51:45.985Z,57.40
2019-05-15T03:54:19.152Z,55.30
2019-05-15T03:56:51.460Z,56.80
2019-05-15T03:59:22.586Z,57.10
2019-05-15T04:01:53.422Z,56.50
2019-05-15T04:04:29.577Z,56.20
2019-05-15T04:06:59.783Z,56.20
2019-05-15T04:09:32.456Z,56.20
2019-05-15T04:12:09.194Z,56.10
2019-05-15T04:14:41.875Z,56.20
2019-05-15T04:17:19.718Z,56.00
2019-05-15T04:19:52.454Z,55.60
2019-05-15T04:22:23.658Z,56.00
2019-05-15T04:24:58.980Z,55.60
2019-05-15T04:27:29.577Z,55.90
2019-05-15T04:30:00.601Z,55.80
2019-05-15T04:32:35.358Z,55.50
2019-05-15T04:35:09.192Z,55.60
2019-05-15T04:37:40.547Z,55.40
2019-05-15T04:40:11.373Z,55.50
2019-05-15T04:42:49.813Z,55.50
2019-05-15T04:45:20.803Z,55.60
2019-05-15T04:47:52.246Z,55.60
2019-05-15T04:50:24.726Z,55.40
2019-05-15T04:52:59.052Z,55.10
2019-05-15T04:55:29.828Z,55.00
2019-05-15T04:58:09.682Z,55.10
2019-05-15T05:00:55.653Z,55.20
2019-05-15T05:03:29.334Z,56.00
2019-05-15T05:05:59.446Z,56.30
2019-05-15T05:08:31.020Z,51.60
2019-05-15T05:11:03.841Z,48.00
2019-05-15T05:13:39.147Z,44.70
2019-05-15T05:16:13.020Z,42.40
2019-05-15T05:18:43.158Z,40.70
2019-05-15T05:21:19.611Z,40.00
2019-05-15T05:23:51.435Z,39.70
2019-05-15T05:26:29.562Z,37.80
2019-05-15T05:29:09.996Z,37.20
2019-05-15T05:31:43.386Z,35.70
2019-05-15T05:34:19.376Z,35.60
2019-05-15T05:36:53.261Z,36.50
2019-05-15T05:39:29.414Z,37.00
2019-05-15T05:41:59.139Z,37.10
2019-05-15T05:44:35.345Z,37.10
2019-05-15T05:47:09.122Z,36.80
2019-05-15T05:49:38.371Z,36.40
2019-05-15T05:52:10.439Z,39.60
2019-05-15T05:54:40.313Z,37.90
2019-05-15T05:57:14.477Z,37.60
2019-05-15T05:59:49.136Z,38.40
2019-05-15T06:02:18.613Z,38.50
2019-05-15T06:04:49.067Z,38.00
2019-05-15T06:07:22.763Z,38.30
2019-05-15T06:10:00.496Z,37.90
2019-05-15T06:12:33.055Z,36.50
2019-05-15T06:15:13.101Z,37.80
2019-05-15T06:17:48.134Z,38.60
2019-05-15T06:20:18.960Z,40.70
2019-05-15T06:22:55.345Z,42.40
2019-05-15T06:25:30.506Z,43.60
2019-05-15T06:28:00.076Z,44.60
2019-05-15T06:30:38.425Z,46.10
2019-05-15T06:33:15.708Z,47.10
2019-05-15T06:35:49.218Z,48.00
2019-05-15T06:38:24.259Z,49.70
2019-05-15T06:40:55.240Z,53.40
2019-05-15T06:43:28.044Z,54.30
2019-05-15T06:46:00.189Z,54.90
2019-05-15T06:48:30.640Z,54.80
2019-05-15T06:51:08.611Z,52.60
2019-05-15T06:53:38.440Z,52.40
2019-05-15T06:56:14.161Z,51.10
2019-05-15T06:58:50.877Z,50.30
2019-05-15T07:01:21.640Z,50.70
2019-05-15T07:03:53.886Z,51.60
2019-05-15T07:06:38.031Z,50.90
2019-05-15T07:09:01.005Z,52.00
2019-05-15T07:11:38.622Z,48.80
2019-05-15T07:14:22.454Z,48.20
2019-05-15T07:16:59.141Z,46.80
2019-05-15T07:19:29.545Z,45.50
2019-05-15T07:22:02.826Z,45.30
2019-05-15T07:24:38.347Z,46.80
2019-05-15T07:27:22.831Z,46.80
2019-05-15T07:29:58.316Z,45.90
2019-05-15T07:32:28.521Z,46.00
2019-05-15T07:35:15.528Z,46.50
2019-05-15T07:37:44.541Z,46.40
2019-05-15T07:40:31.432Z,47.10
2019-05-15T07:43:02.671Z,47.80
2019-05-15T07:45:42.493Z,46.20
2019-05-15T07:48:29.068Z,45.70
2019-05-15T07:51:11.044Z,45.00
2019-05-15T07:53:43.557Z,43.60
2019-05-15T07:56:14.615Z,44.90
2019-05-15T08:01:41.358Z,44.20
2019-05-15T08:04:25.231Z,45.70
2019-05-15T08:06:53.321Z,46.00
2019-05-15T08:09:28.267Z,45.80
2019-05-15T08:12:03.268Z,45.60
2019-05-15T08:14:40.309Z,44.50
2019-05-15T08:17:18.331Z,43.30
2019-05-15T08:19:53.797Z,44.70
2019-05-15T08:22:28.457Z,44.70
2019-05-15T08:24:59.778Z,46.20
2019-05-15T08:27:32.799Z,46.00
2019-05-15T08:30:02.881Z,44.60
2019-05-15T08:32:49.110Z,45.30
2019-05-15T08:35:25.023Z,45.40
2019-05-15T08:37:58.997Z,44.70
2019-05-15T08:40:30.288Z,40.70
2019-05-15T08:43:02.338Z,42.10
2019-05-15T08:45:35.359Z,45.40
2019-05-15T08:48:18.248Z,41.40
2019-05-15T08:50:51.993Z,41.20
2019-05-15T08:53:28.468Z,39.00
2019-05-15T08:56:04.874Z,38.70
2019-05-15T08:58:37.979Z,40.20
2019-05-15T09:01:13.162Z,41.90
2019-05-15T09:03:53.482Z,38.60
2019-05-15T09:06:29.142Z,37.00
2019-05-15T09:09:02.453Z,36.20
2019-05-15T09:11:39.592Z,35.00
2019-05-15T09:14:14.157Z,37.70
2019-05-15T09:16:51.209Z,38.80
2019-05-15T09:19:20.706Z,39.00
2019-05-15T09:21:52.001Z,38.60
2019-05-15T09:24:21.410Z,38.90
2019-05-15T09:26:51.692Z,39.60
2019-05-15T09:29:22.486Z,38.40
2019-05-15T09:31:54.709Z,38.80
2019-05-15T09:34:45.277Z,38.20
2019-05-15T09:37:03.853Z,38.20
2019-05-15T09:39:35.315Z,37.50
2019-05-15T09:42:13.901Z,36.20
2019-05-15T09:44:44.091Z,34.60
2019-05-15T09:47:20.254Z,36.50
2019-05-15T09:49:48.592Z,36.30
2019-05-15T09:52:25.033Z,36.40
2019-05-15T09:54:55.252Z,36.30
2019-05-15T09:57:24.591Z,36.90
2019-05-15T09:59:53.647Z,34.70
2019-05-15T10:02:23.827Z,35.00
2019-05-15T10:05:06.036Z,37.20
2019-05-15T10:07:30.389Z,38.70
2019-05-15T10:10:03.958Z,37.00
2019-05-15T10:12:35.311Z,36.60
2019-05-15T10:15:11.292Z,38.00
2019-05-15T10:17:40.953Z,37.50
2019-05-15T10:20:12.149Z,35.90
2019-05-15T10:22:54.667Z,37.00
2019-05-15T10:25:22.496Z,35.20
2019-05-15T10:27:52.200Z,34.20
2019-05-15T10:30:24.645Z,34.60
2019-05-15T10:32:57.385Z,36.00
2019-05-15T10:35:31.777Z,35.60
2019-05-15T10:38:09.941Z,33.30
2019-05-15T10:40:41.086Z,31.80
2019-05-15T10:43:12.120Z,30.50
2019-05-15T10:45:43.405Z,32.30
2019-05-15T10:48:18.965Z,32.00
2019-05-15T10:50:50.118Z,31.50
2019-05-15T10:53:19.774Z,32.10
2019-05-15T10:55:49.745Z,32.00
2019-05-15T10:58:33.290Z,29.90
2019-05-15T11:00:51.534Z,32.10
2019-05-15T11:03:20.822Z,31.20
2019-05-15T11:05:50.134Z,30.30
2019-05-15T11:08:19.445Z,30.00
2019-05-15T11:10:49.750Z,29.60
2019-05-15T11:13:19.974Z,30.20
2019-05-15T11:15:50.969Z,29.90
2019-05-15T11:18:23.532Z,29.70
2019-05-15T11:20:52.800Z,30.00
2019-05-15T11:23:22.393Z,30.20
2019-05-15T11:25:55.150Z,30.40
2019-05-15T11:28:31.759Z,30.90
2019-05-15T11:31:09.973Z,30.00
2019-05-15T11:33:38.507Z,29.00
2019-05-15T11:36:09.617Z,28.90
2019-05-15T11:38:39.287Z,28.90
2019-05-15T11:41:11.890Z,29.70
2019-05-15T11:43:42.380Z,29.00
2019-05-15T11:46:20.607Z,29.30
2019-05-15T11:48:52.552Z,29.80
2019-05-15T11:51:25.586Z,30.00
2019-05-15T11:53:58.605Z,30.00
2019-05-15T11:56:39.064Z,30.70
2019-05-15T11:59:08.373Z,30.20
2019-05-15T12:01:48.992Z,30.00
2019-05-15T12:04:30.410Z,29.70
2019-05-15T12:07:02.145Z,29.60
2019-05-15T12:09:53.909Z,29.10
2019-05-15T12:12:38.919Z,29.40
2019-05-15T12:15:12.672Z,30.10
2019-05-15T12:17:48.460Z,29.30
2019-05-15T12:20:22.335Z,29.50
2019-05-15T12:23:02.790Z,30.10
2019-05-15T12:25:33.200Z,29.50
2019-05-15T12:28:09.461Z,29.50
2019-05-15T12:30:40.741Z,29.50
2019-05-15T12:33:24.238Z,28.30
2019-05-15T12:35:56.096Z,28.90
2019-05-15T12:38:28.585Z,27.70
2019-05-15T13:01:24.887Z,28.10
2019-05-15T13:03:57.845Z,26.50
2019-05-15T13:06:28.691Z,26.50
2019-05-15T13:09:02.020Z,25.90
2019-05-15T13:11:32.105Z,25.20
2019-05-15T13:14:00.928Z,25.90
2019-05-15T13:16:30.264Z,26.20
2019-05-15T13:18:59.616Z,26.20
2019-05-15T13:21:29.664Z,26.00
2019-05-15T13:24:01.844Z,25.70
2019-05-15T13:26:49.536Z,25.30
2019-05-15T13:29:21.485Z,26.00
2019-05-15T13:31:49.894Z,26.50
2019-05-15T13:34:20.639Z,26.60
2019-05-15T13:36:50.376Z,26.60
2019-05-15T13:39:28.475Z,26.40
2019-05-15T13:42:18.208Z,26.50
2019-05-15T13:44:42.883Z,26.80
2019-05-15T13:47:12.862Z,26.50
2019-05-15T13:49:44.116Z,26.60
2019-05-15T13:52:13.140Z,27.10
2019-05-15T13:54:42.664Z,27.10
2019-05-15T13:57:13.751Z,27.00
2019-05-15T13:59:48.189Z,27.70
2019-05-15T14:02:18.797Z,26.90
2019-05-15T14:04:49.081Z,27.30
2019-05-15T14:07:24.307Z,27.90
2019-05-15T14:10:09.442Z,28.00
2019-05-15T14:12:52.433Z,28.20
2019-05-15T14:15:21.631Z,27.70
2019-05-15T14:17:50.542Z,27.40
2019-05-15T14:20:22.031Z,27.50
2019-05-15T14:22:51.784Z,27.60
2019-05-15T14:25:24.921Z,27.90
2019-05-15T14:27:59.415Z,26.60
2019-05-15T14:30:29.824Z,26.40
2019-05-15T14:33:03.321Z,27.10
2019-05-15T14:35:33.941Z,26.40
2019-05-15T14:38:10.563Z,26.40
2019-05-15T14:40:39.700Z,26.80
2019-05-15T14:43:11.243Z,26.80
2019-05-15T14:45:40.667Z,26.90
2019-05-15T14:48:12.625Z,26.60
2019-05-15T14:50:43.371Z,26.30
2019-05-15T14:53:18.678Z,26.90
2019-05-15T14:55:54.357Z,27.50
2019-05-15T14:58:25.819Z,27.30
2019-05-15T15:01:03.489Z,27.00
2019-05-15T15:03:29.340Z,27.10
2019-05-15T15:06:01.403Z,27.10
2019-05-15T15:08:33.197Z,27.30
2019-05-15T15:11:12.501Z,26.80
2019-05-15T15:13:43.681Z,26.80
2019-05-15T15:16:19.379Z,26.80
2019-05-15T15:18:48.343Z,27.00
2019-05-15T15:21:19.629Z,27.10
2019-05-15T15:23:48.409Z,27.30
2019-05-15T15:26:19.242Z,27.50
2019-05-15T15:28:49.751Z,27.60
2019-05-15T15:31:19.138Z,27.90
2019-05-15T15:33:49.115Z,27.60
2019-05-15T15:36:18.039Z,27.50
2019-05-15T15:38:49.870Z,27.60
2019-05-15T15:41:19.418Z,28.10
2019-05-15T15:43:48.568Z,28.00
2019-05-15T15:46:20.529Z,27.70
2019-05-15T15:48:58.736Z,27.90
2019-05-15T15:51:28.568Z,27.00
2019-05-15T15:54:01.886Z,25.80
2019-05-15T15:56:31.304Z,27.10
2019-05-15T15:59:00.523Z,27.70
2019-05-15T16:01:36.116Z,28.00
2019-05-15T16:04:09.824Z,27.30
2019-05-15T16:06:40.729Z,27.70
2019-05-15T16:09:14.563Z,27.90
2019-05-15T16:11:49.462Z,28.40
2019-05-15T16:14:20.179Z,28.70
2019-05-15T16:16:49.071Z,28.80
2019-05-15T16:19:18.748Z,29.00
2019-05-15T16:21:49.218Z,28.80
2019-05-15T16:24:21.602Z,28.90
2019-05-15T16:26:50.121Z,28.30
2019-05-15T16:29:21.400Z,29.30
2019-05-15T16:31:53.032Z,29.40
2019-05-15T16:34:21.901Z,29.20
2019-05-15T16:36:50.815Z,29.60
2019-05-15T16:39:21.315Z,29.60
2019-05-15T16:41:53.847Z,29.60
2019-05-15T16:44:23.676Z,30.00
2019-05-15T16:46:53.775Z,29.40
2019-05-15T16:49:23.417Z,29.10
2019-05-15T16:51:53.741Z,28.90
2019-05-15T16:54:22.741Z,28.60
2019-05-15T16:56:54.992Z,30.40
2019-05-15T16:59:28.870Z,28.40
2019-05-15T17:01:57.829Z,29.30
2019-05-15T17:04:28.822Z,29.80
2019-05-15T17:07:04.325Z,29.60
2019-05-15T17:09:38.698Z,29.70
2019-05-15T17:12:08.733Z,28.80
2019-05-15T17:14:38.808Z,29.60
2019-05-15T17:17:08.403Z,29.90
2019-05-15T17:19:42.041Z,30.00
2019-05-15T17:22:10.952Z,30.00
2019-05-15T17:24:48.789Z,29.90
2019-05-15T17:27:20.657Z,30.20
2019-05-15T17:29:52.727Z,30.20
2019-05-15T17:32:24.846Z,30.40
2019-05-15T17:34:54.262Z,31.40
2019-05-15T17:37:24.845Z,30.90
2019-05-15T17:40:00.511Z,29.60
2019-05-15T17:42:29.241Z,30.40
2019-05-15T17:45:00.593Z,32.20
2019-05-15T17:47:31.260Z,30.70
2019-05-15T17:50:02.840Z,30.60
2019-05-15T17:52:31.881Z,30.50
2019-05-15T17:55:03.719Z,30.30
2019-05-15T17:57:38.569Z,30.80
2019-05-15T18:00:15.740Z,30.90
2019-05-15T18:02:48.428Z,30.80
2019-05-15T18:05:20.597Z,30.50
2019-05-15T18:07:55.603Z,30.90
2019-05-15T18:10:28.021Z,30.90
2019-05-15T18:12:58.339Z,30.90
2019-05-15T18:15:28.267Z,31.40
2019-05-15T18:17:59.327Z,31.20
2019-05-15T18:20:31.328Z,30.90
2019-05-15T18:23:00.157Z,30.30
2019-05-15T18:25:30.443Z,31.10
2019-05-15T18:28:02.450Z,31.90
2019-05-15T18:30:31.420Z,31.30
2019-05-15T18:33:09.014Z,31.10
2019-05-15T18:35:45.457Z,31.20
2019-05-15T18:38:19.744Z,33.60
2019-05-15T18:40:58.294Z,31.20
2019-05-15T18:43:28.426Z,32.10
2019-05-15T18:46:10.550Z,31.20
2019-05-15T18:48:52.396Z,31.00
2019-05-15T18:51:25.217Z,31.10
2019-05-15T18:53:58.814Z,31.00
2019-05-15T18:56:31.326Z,31.30
2019-05-15T18:59:04.289Z,32.90
2019-05-15T19:01:38.951Z,31.90
2019-05-15T19:04:08.757Z,32.60
2019-05-15T19:06:38.341Z,33.30
2019-05-15T19:09:21.302Z,33.40
2019-05-15T19:11:54.241Z,34.30
2019-05-15T19:14:24.854Z,35.20
2019-05-15T19:20:31.807Z,35.60
2019-05-15T19:23:07.966Z,36.30
2019-05-15T19:26:33.791Z,36.70
2019-05-15T19:29:03.378Z,37.20
2019-05-15T19:31:35.004Z,37.60
2019-05-15T19:34:45.363Z,38.00
2019-05-15T19:37:18.414Z,37.70
2019-05-15T19:39:47.935Z,37.70
2019-05-15T19:42:18.149Z,38.00
